sensor_id;sensor_type;location;lat;lon;timestamp;P1;durP1;ratioP1;P2;durP2;ratioP2
21827;SDS011;11076;47.942;11.804;2023-07-29T00:02:22;2.55;;;1.80;;
21827;SDS011;11076;47.942;11.804;2023-07-29T00:07:25;2.63;;;2.33;;
21827;SDS011;11076;47.942;11.804;2023-07-29T00:12:27;3.00;;;1.90;;
21827;SDS011;11076;47.942;11.804;2023-07-29T00:17:30;3.03;;;2.22;;
21827;SDS011;11076;47.942;11.804;2023-07-29T00:22:32;2.25;;;1.77;;
21827;SDS011;11076;47.942;11.804;2023-07-29T00:27:35;2.40;;;2.20;;
21827;SDS011;11076;47.942;11.804;2023-07-29T00:32:37;5.60;;;2.20;;
21827;SDS011;11076;47.942;11.804;2023-07-29T00:37:40;2.75;;;2.00;;
21827;SDS011;11076;47.942;11.804;2023-07-29T00:42:42;3.45;;;1.98;;
21827;SDS011;11076;47.942;11.804;2023-07-29T00:47:45;3.28;;;2.10;;
21827;SDS011;11076;47.942;11.804;2023-07-29T00:52:48;10.32;;;2.28;;
21827;SDS011;11076;47.942;11.804;2023-07-29T00:57:51;2.97;;;1.80;;
21827;SDS011;11076;47.942;11.804;2023-07-29T01:02:56;1.73;;;1.63;;
21827;SDS011;11076;47.942;11.804;2023-07-29T01:08:05;2.50;;;2.00;;
21827;SDS011;11076;47.942;11.804;2023-07-29T01:13:14;2.30;;;2.08;;
21827;SDS011;11076;47.942;11.804;2023-07-29T01:18:23;2.45;;;1.90;;
21827;SDS011;11076;47.942;11.804;2023-07-29T01:23:31;2.50;;;1.63;;
21827;SDS011;11076;47.942;11.804;2023-07-29T01:28:34;1.70;;;1.60;;
21827;SDS011;11076;47.942;11.804;2023-07-29T01:33:42;2.35;;;1.95;;
21827;SDS011;11076;47.942;11.804;2023-07-29T01:38:51;2.00;;;1.80;;
21827;SDS011;11076;47.942;11.804;2023-07-29T01:43:56;1.90;;;1.70;;
21827;SDS011;11076;47.942;11.804;2023-07-29T01:48:59;3.33;;;1.75;;
21827;SDS011;11076;47.942;11.804;2023-07-29T01:54:01;1.85;;;1.70;;
21827;SDS011;11076;47.942;11.804;2023-07-29T01:59:04;4.18;;;2.00;;
21827;SDS011;11076;47.942;11.804;2023-07-29T02:04:06;2.38;;;2.15;;
21827;SDS011;11076;47.942;11.804;2023-07-29T02:09:09;6.55;;;4.75;;
21827;SDS011;11076;47.942;11.804;2023-07-29T02:14:11;3.03;;;2.65;;
21827;SDS011;11076;47.942;11.804;2023-07-29T02:19:14;4.55;;;1.90;;
21827;SDS011;11076;47.942;11.804;2023-07-29T02:24:16;1.98;;;1.60;;
21827;SDS011;11076;47.942;11.804;2023-07-29T02:29:18;4.10;;;2.17;;
21827;SDS011;11076;47.942;11.804;2023-07-29T02:34:21;5.95;;;2.05;;
21827;SDS011;11076;47.942;11.804;2023-07-29T02:39:23;6.55;;;2.15;;
21827;SDS011;11076;47.942;11.804;2023-07-29T02:44:26;7.05;;;1.95;;
21827;SDS011;11076;47.942;11.804;2023-07-29T02:49:28;6.03;;;2.08;;
21827;SDS011;11076;47.942;11.804;2023-07-29T02:54:31;2.58;;;2.15;;
21827;SDS011;11076;47.942;11.804;2023-07-29T02:59:33;2.20;;;2.00;;
21827;SDS011;11076;47.942;11.804;2023-07-29T03:04:36;2.10;;;1.83;;
21827;SDS011;11076;47.942;11.804;2023-07-29T03:09:39;2.97;;;2.10;;
21827;SDS011;11076;47.942;11.804;2023-07-29T03:14:47;1.63;;;1.52;;
21827;SDS011;11076;47.942;11.804;2023-07-29T03:19:50;5.75;;;2.60;;
21827;SDS011;11076;47.942;11.804;2023-07-29T03:24:52;2.50;;;2.10;;
21827;SDS011;11076;47.942;11.804;2023-07-29T03:29:54;2.75;;;2.22;;
21827;SDS011;11076;47.942;11.804;2023-07-29T03:34:57;2.70;;;1.98;;
21827;SDS011;11076;47.942;11.804;2023-07-29T03:40:00;3.10;;;2.00;;
21827;SDS011;11076;47.942;11.804;2023-07-29T03:45:05;2.90;;;2.08;;
21827;SDS011;11076;47.942;11.804;2023-07-29T03:50:07;3.38;;;2.10;;
21827;SDS011;11076;47.942;11.804;2023-07-29T03:55:10;2.88;;;1.92;;
21827;SDS011;11076;47.942;11.804;2023-07-29T04:00:13;2.63;;;1.80;;
21827;SDS011;11076;47.942;11.804;2023-07-29T04:05:21;1.80;;;1.60;;
21827;SDS011;11076;47.942;11.804;2023-07-29T04:10:24;1.70;;;1.60;;
21827;SDS011;11076;47.942;11.804;2023-07-29T04:15:26;2.00;;;1.70;;
21827;SDS011;11076;47.942;11.804;2023-07-29T04:20:28;2.30;;;1.83;;
21827;SDS011;11076;47.942;11.804;2023-07-29T04:25:31;6.10;;;2.30;;
21827;SDS011;11076;47.942;11.804;2023-07-29T04:30:33;2.60;;;2.10;;
21827;SDS011;11076;47.942;11.804;2023-07-29T04:35:36;3.88;;;1.90;;
21827;SDS011;11076;47.942;11.804;2023-07-29T04:40:39;2.25;;;1.50;;
21827;SDS011;11076;47.942;11.804;2023-07-29T04:45:44;2.20;;;1.90;;
21827;SDS011;11076;47.942;11.804;2023-07-29T04:50:47;2.10;;;1.63;;
21827;SDS011;11076;47.942;11.804;2023-07-29T04:55:49;3.97;;;1.65;;
21827;SDS011;11076;47.942;11.804;2023-07-29T05:00:52;1.73;;;1.42;;
21827;SDS011;11076;47.942;11.804;2023-07-29T05:05:54;2.13;;;1.52;;
21827;SDS011;11076;47.942;11.804;2023-07-29T05:10:58;2.33;;;1.27;;
21827;SDS011;11076;47.942;11.804;2023-07-29T05:16:01;3.08;;;1.40;;
21827;SDS011;11076;47.942;11.804;2023-07-29T05:21:04;1.50;;;1.15;;
21827;SDS011;11076;47.942;11.804;2023-07-29T05:26:06;1.60;;;1.38;;
21827;SDS011;11076;47.942;11.804;2023-07-29T05:31:08;1.77;;;1.40;;
21827;SDS011;11076;47.942;11.804;2023-07-29T05:36:11;1.40;;;1.30;;
21827;SDS011;11076;47.942;11.804;2023-07-29T05:41:13;3.40;;;1.23;;
21827;SDS011;11076;47.942;11.804;2023-07-29T05:46:16;4.78;;;1.50;;
21827;SDS011;11076;47.942;11.804;2023-07-29T05:51:18;1.67;;;1.17;;
21827;SDS011;11076;47.942;11.804;2023-07-29T05:56:21;1.40;;;1.30;;
21827;SDS011;11076;47.942;11.804;2023-07-29T06:01:23;1.75;;;1.52;;
21827;SDS011;11076;47.942;11.804;2023-07-29T06:06:26;2.65;;;1.45;;
21827;SDS011;11076;47.942;11.804;2023-07-29T06:11:29;1.40;;;1.23;;
21827;SDS011;11076;47.942;11.804;2023-07-29T06:16:31;5.57;;;1.20;;
21827;SDS011;11076;47.942;11.804;2023-07-29T06:21:34;5.32;;;1.42;;
21827;SDS011;11076;47.942;11.804;2023-07-29T06:26:37;1.23;;;1.10;;
21827;SDS011;11076;47.942;11.804;2023-07-29T06:31:39;2.80;;;0.98;;
21827;SDS011;11076;47.942;11.804;2023-07-29T06:36:41;1.40;;;1.30;;
21827;SDS011;11076;47.942;11.804;2023-07-29T06:41:44;5.03;;;1.63;;
21827;SDS011;11076;47.942;11.804;2023-07-29T06:46:47;2.92;;;1.52;;
21827;SDS011;11076;47.942;11.804;2023-07-29T06:51:50;4.18;;;1.17;;
21827;SDS011;11076;47.942;11.804;2023-07-29T06:56:52;1.50;;;1.40;;
21827;SDS011;11076;47.942;11.804;2023-07-29T07:01:55;1.45;;;1.35;;
21827;SDS011;11076;47.942;11.804;2023-07-29T07:06:58;3.30;;;1.40;;
21827;SDS011;11076;47.942;11.804;2023-07-29T07:18:38;4.45;;;1.95;;
21827;SDS011;11076;47.942;11.804;2023-07-29T07:23:40;3.60;;;2.33;;
21827;SDS011;11076;47.942;11.804;2023-07-29T07:28:43;3.38;;;2.13;;
21827;SDS011;11076;47.942;11.804;2023-07-29T07:33:45;4.93;;;3.85;;
21827;SDS011;11076;47.942;11.804;2023-07-29T07:38:47;2.00;;;1.85;;
21827;SDS011;11076;47.942;11.804;2023-07-29T07:43:50;5.18;;;1.98;;
21827;SDS011;11076;47.942;11.804;2023-07-29T07:48:53;4.32;;;2.38;;
21827;SDS011;11076;47.942;11.804;2023-07-29T07:53:55;2.53;;;2.33;;
21827;SDS011;11076;47.942;11.804;2023-07-29T07:58:58;1.95;;;1.85;;
21827;SDS011;11076;47.942;11.804;2023-07-29T08:04:00;2.75;;;1.67;;
21827;SDS011;11076;47.942;11.804;2023-07-29T08:09:03;2.13;;;2.00;;
21827;SDS011;11076;47.942;11.804;2023-07-29T08:14:05;2.22;;;1.95;;
21827;SDS011;11076;47.942;11.804;2023-07-29T08:19:08;1.85;;;1.75;;
21827;SDS011;11076;47.942;11.804;2023-07-29T08:24:11;3.15;;;1.92;;
21827;SDS011;11076;47.942;11.804;2023-07-29T08:29:14;3.88;;;1.98;;
21827;SDS011;11076;47.942;11.804;2023-07-29T08:34:17;2.63;;;1.90;;
21827;SDS011;11076;47.942;11.804;2023-07-29T08:39:24;2.05;;;1.85;;
21827;SDS011;11076;47.942;11.804;2023-07-29T08:44:30;1.95;;;1.85;;
21827;SDS011;11076;47.942;11.804;2023-07-29T08:49:37;2.92;;;2.22;;
21827;SDS011;11076;47.942;11.804;2023-07-29T08:54:40;3.47;;;2.22;;
21827;SDS011;11076;47.942;11.804;2023-07-29T08:59:43;2.15;;;2.00;;
21827;SDS011;11076;47.942;11.804;2023-07-29T09:04:46;2.55;;;2.13;;
21827;SDS011;11076;47.942;11.804;2023-07-29T09:09:49;2.83;;;2.50;;
21827;SDS011;11076;47.942;11.804;2023-07-29T09:14:52;2.53;;;2.20;;
21827;SDS011;11076;47.942;11.804;2023-07-29T09:19:55;2.63;;;2.42;;
21827;SDS011;11076;47.942;11.804;2023-07-29T09:24:57;3.28;;;2.53;;
21827;SDS011;11076;47.942;11.804;2023-07-29T09:30:00;4.05;;;2.55;;
21827;SDS011;11076;47.942;11.804;2023-07-29T09:35:02;3.72;;;2.60;;
21827;SDS011;11076;47.942;11.804;2023-07-29T09:40:14;4.82;;;2.60;;
21827;SDS011;11076;47.942;11.804;2023-07-29T09:45:21;3.05;;;2.30;;
21827;SDS011;11076;47.942;11.804;2023-07-29T09:50:26;3.25;;;2.40;;
21827;SDS011;11076;47.942;11.804;2023-07-29T09:55:32;2.42;;;2.22;;
21827;SDS011;11076;47.942;11.804;2023-07-29T10:00:35;2.70;;;2.47;;
21827;SDS011;11076;47.942;11.804;2023-07-29T10:05:40;2.47;;;2.28;;
21827;SDS011;11076;47.942;11.804;2023-07-29T10:10:43;3.60;;;2.78;;
21827;SDS011;11076;47.942;11.804;2023-07-29T10:15:45;3.05;;;2.60;;
21827;SDS011;11076;47.942;11.804;2023-07-29T10:20:51;2.40;;;2.20;;
21827;SDS011;11076;47.942;11.804;2023-07-29T10:26:02;3.45;;;3.00;;
21827;SDS011;11076;47.942;11.804;2023-07-29T10:31:06;3.15;;;2.85;;
21827;SDS011;11076;47.942;11.804;2023-07-29T10:36:09;5.10;;;3.28;;
21827;SDS011;11076;47.942;11.804;2023-07-29T10:41:13;3.28;;;2.78;;
21827;SDS011;11076;47.942;11.804;2023-07-29T10:46:16;3.28;;;2.88;;
21827;SDS011;11076;47.942;11.804;2023-07-29T10:56:35;3.75;;;2.83;;
21827;SDS011;11076;47.942;11.804;2023-07-29T11:01:39;2.67;;;2.42;;
21827;SDS011;11076;47.942;11.804;2023-07-29T11:12:32;3.78;;;2.60;;
21827;SDS011;11076;47.942;11.804;2023-07-29T11:17:40;2.70;;;2.45;;
21827;SDS011;11076;47.942;11.804;2023-07-29T11:22:48;3.97;;;2.88;;
21827;SDS011;11076;47.942;11.804;2023-07-29T11:27:51;3.60;;;2.90;;
21827;SDS011;11076;47.942;11.804;2023-07-29T11:32:55;3.25;;;2.42;;
21827;SDS011;11076;47.942;11.804;2023-07-29T11:37:57;2.75;;;2.55;;
21827;SDS011;11076;47.942;11.804;2023-07-29T11:43:00;3.92;;;2.78;;
21827;SDS011;11076;47.942;11.804;2023-07-29T11:48:02;3.70;;;2.70;;
21827;SDS011;11076;47.942;11.804;2023-07-29T11:53:05;3.05;;;2.85;;
21827;SDS011;11076;47.942;11.804;2023-07-29T11:58:07;3.15;;;2.65;;
21827;SDS011;11076;47.942;11.804;2023-07-29T12:03:10;5.68;;;2.70;;
21827;SDS011;11076;47.942;11.804;2023-07-29T12:08:14;3.28;;;2.42;;
21827;SDS011;11076;47.942;11.804;2023-07-29T12:13:16;3.05;;;2.60;;
21827;SDS011;11076;47.942;11.804;2023-07-29T12:18:19;2.60;;;2.40;;
21827;SDS011;11076;47.942;11.804;2023-07-29T12:23:32;3.38;;;2.60;;
21827;SDS011;11076;47.942;11.804;2023-07-29T12:28:35;5.13;;;2.47;;
21827;SDS011;11076;47.942;11.804;2023-07-29T12:33:37;4.63;;;2.80;;
21827;SDS011;11076;47.942;11.804;2023-07-29T12:38:42;4.38;;;2.80;;
21827;SDS011;11076;47.942;11.804;2023-07-29T12:43:45;3.80;;;2.45;;
21827;SDS011;11076;47.942;11.804;2023-07-29T12:48:48;4.30;;;2.72;;
21827;SDS011;11076;47.942;11.804;2023-07-29T12:53:50;3.25;;;2.72;;
21827;SDS011;11076;47.942;11.804;2023-07-29T12:58:52;5.00;;;2.97;;
21827;SDS011;11076;47.942;11.804;2023-07-29T13:03:55;3.72;;;2.95;;
21827;SDS011;11076;47.942;11.804;2023-07-29T13:08:58;3.30;;;2.50;;
21827;SDS011;11076;47.942;11.804;2023-07-29T13:14:00;6.75;;;2.60;;
21827;SDS011;11076;47.942;11.804;2023-07-29T13:19:03;3.20;;;2.85;;
21827;SDS011;11076;47.942;11.804;2023-07-29T13:24:05;5.18;;;3.10;;
21827;SDS011;11076;47.942;11.804;2023-07-29T13:29:07;2.25;;;1.90;;
21827;SDS011;11076;47.942;11.804;2023-07-29T13:34:10;3.08;;;2.53;;
21827;SDS011;11076;47.942;11.804;2023-07-29T13:39:13;3.17;;;2.55;;
21827;SDS011;11076;47.942;11.804;2023-07-29T13:44:15;3.35;;;2.20;;
21827;SDS011;11076;47.942;11.804;2023-07-29T13:49:18;2.67;;;2.47;;
21827;SDS011;11076;47.942;11.804;2023-07-29T13:54:20;5.45;;;1.88;;
21827;SDS011;11076;47.942;11.804;2023-07-29T13:59:23;3.22;;;2.40;;
21827;SDS011;11076;47.942;11.804;2023-07-29T14:04:26;2.38;;;2.10;;
21827;SDS011;11076;47.942;11.804;2023-07-29T14:09:28;2.80;;;2.25;;
21827;SDS011;11076;47.942;11.804;2023-07-29T14:14:31;2.97;;;1.60;;
21827;SDS011;11076;47.942;11.804;2023-07-29T14:19:33;1.90;;;1.70;;
21827;SDS011;11076;47.942;11.804;2023-07-29T14:24:36;2.42;;;1.80;;
21827;SDS011;11076;47.942;11.804;2023-07-29T14:29:38;3.70;;;2.00;;
21827;SDS011;11076;47.942;11.804;2023-07-29T14:34:41;2.05;;;1.65;;
21827;SDS011;11076;47.942;11.804;2023-07-29T14:39:43;2.38;;;1.70;;
21827;SDS011;11076;47.942;11.804;2023-07-29T14:44:46;2.05;;;1.67;;
21827;SDS011;11076;47.942;11.804;2023-07-29T14:49:48;2.17;;;1.67;;
21827;SDS011;11076;47.942;11.804;2023-07-29T14:54:50;5.80;;;1.83;;
21827;SDS011;11076;47.942;11.804;2023-07-29T14:59:53;6.55;;;2.65;;
21827;SDS011;11076;47.942;11.804;2023-07-29T15:04:55;2.97;;;2.42;;
21827;SDS011;11076;47.942;11.804;2023-07-29T15:09:58;5.60;;;2.60;;
21827;SDS011;11076;47.942;11.804;2023-07-29T15:15:00;4.13;;;2.13;;
21827;SDS011;11076;47.942;11.804;2023-07-29T15:20:03;6.75;;;2.40;;
21827;SDS011;11076;47.942;11.804;2023-07-29T15:25:07;5.55;;;2.30;;
21827;SDS011;11076;47.942;11.804;2023-07-29T15:30:11;4.47;;;2.70;;
21827;SDS011;11076;47.942;11.804;2023-07-29T15:35:14;4.32;;;2.30;;
21827;SDS011;11076;47.942;11.804;2023-07-29T15:40:17;3.08;;;2.33;;
21827;SDS011;11076;47.942;11.804;2023-07-29T15:45:19;3.90;;;2.80;;
21827;SDS011;11076;47.942;11.804;2023-07-29T15:50:22;7.10;;;2.30;;
21827;SDS011;11076;47.942;11.804;2023-07-29T15:55:25;5.13;;;3.15;;
21827;SDS011;11076;47.942;11.804;2023-07-29T16:00:27;2.95;;;2.40;;
21827;SDS011;11076;47.942;11.804;2023-07-29T16:05:31;6.15;;;2.50;;
21827;SDS011;11076;47.942;11.804;2023-07-29T16:10:33;5.50;;;2.95;;
21827;SDS011;11076;47.942;11.804;2023-07-29T16:15:35;3.22;;;2.20;;
21827;SDS011;11076;47.942;11.804;2023-07-29T16:20:38;3.25;;;2.33;;
21827;SDS011;11076;47.942;11.804;2023-07-29T16:25:40;4.32;;;2.55;;
21827;SDS011;11076;47.942;11.804;2023-07-29T16:30:43;6.85;;;2.88;;
21827;SDS011;11076;47.942;11.804;2023-07-29T16:35:46;4.25;;;2.63;;
21827;SDS011;11076;47.942;11.804;2023-07-29T16:40:48;3.63;;;2.38;;
21827;SDS011;11076;47.942;11.804;2023-07-29T16:45:58;4.05;;;2.60;;
21827;SDS011;11076;47.942;11.804;2023-07-29T16:51:00;4.78;;;3.13;;
21827;SDS011;11076;47.942;11.804;2023-07-29T16:56:03;4.72;;;3.08;;
21827;SDS011;11076;47.942;11.804;2023-07-29T17:01:05;5.57;;;3.80;;
21827;SDS011;11076;47.942;11.804;2023-07-29T17:06:09;2.28;;;2.08;;
21827;SDS011;11076;47.942;11.804;2023-07-29T17:11:12;6.97;;;2.55;;
21827;SDS011;11076;47.942;11.804;2023-07-29T17:16:14;2.97;;;2.40;;
21827;SDS011;11076;47.942;11.804;2023-07-29T17:21:16;4.07;;;2.30;;
21827;SDS011;11076;47.942;11.804;2023-07-29T17:26:19;3.17;;;1.75;;
21827;SDS011;11076;47.942;11.804;2023-07-29T17:31:21;2.08;;;1.27;;
21827;SDS011;11076;47.942;11.804;2023-07-29T17:36:24;4.03;;;1.60;;
21827;SDS011;11076;47.942;11.804;2023-07-29T17:41:26;4.93;;;3.55;;
21827;SDS011;11076;47.942;11.804;2023-07-29T17:46:29;1.30;;;1.20;;
21827;SDS011;11076;47.942;11.804;2023-07-29T17:51:31;2.05;;;0.93;;
21827;SDS011;11076;47.942;11.804;2023-07-29T17:56:34;2.53;;;1.30;;
21827;SDS011;11076;47.942;11.804;2023-07-29T18:01:36;1.38;;;1.13;;
21827;SDS011;11076;47.942;11.804;2023-07-29T18:06:39;1.50;;;1.33;;
21827;SDS011;11076;47.942;11.804;2023-07-29T18:11:41;1.15;;;1.05;;
21827;SDS011;11076;47.942;11.804;2023-07-29T18:16:44;0.93;;;0.85;;
21827;SDS011;11076;47.942;11.804;2023-07-29T18:21:46;1.25;;;1.15;;
21827;SDS011;11076;47.942;11.804;2023-07-29T18:26:49;1.60;;;1.20;;
21827;SDS011;11076;47.942;11.804;2023-07-29T18:31:52;2.05;;;0.73;;
21827;SDS011;11076;47.942;11.804;2023-07-29T18:36:54;1.10;;;1.00;;
21827;SDS011;11076;47.942;11.804;2023-07-29T18:41:57;2.42;;;0.90;;
21827;SDS011;11076;47.942;11.804;2023-07-29T18:46:59;1.20;;;1.08;;
21827;SDS011;11076;47.942;11.804;2023-07-29T18:52:02;1.90;;;1.60;;
21827;SDS011;11076;47.942;11.804;2023-07-29T18:57:04;2.33;;;1.02;;
21827;SDS011;11076;47.942;11.804;2023-07-29T19:02:07;5.05;;;1.20;;
21827;SDS011;11076;47.942;11.804;2023-07-29T19:07:09;1.60;;;1.00;;
21827;SDS011;11076;47.942;11.804;2023-07-29T19:12:12;0.90;;;0.90;;
21827;SDS011;11076;47.942;11.804;2023-07-29T19:17:15;3.40;;;1.15;;
21827;SDS011;11076;47.942;11.804;2023-07-29T19:22:17;1.05;;;0.80;;
21827;SDS011;11076;47.942;11.804;2023-07-29T19:27:20;1.27;;;0.90;;
21827;SDS011;11076;47.942;11.804;2023-07-29T19:32:22;0.70;;;0.70;;
21827;SDS011;11076;47.942;11.804;2023-07-29T19:37:25;1.63;;;1.08;;
21827;SDS011;11076;47.942;11.804;2023-07-29T19:42:27;1.38;;;1.20;;
21827;SDS011;11076;47.942;11.804;2023-07-29T19:47:30;1.30;;;1.08;;
21827;SDS011;11076;47.942;11.804;2023-07-29T19:52:32;3.80;;;1.45;;
21827;SDS011;11076;47.942;11.804;2023-07-29T19:57:35;3.88;;;1.40;;
21827;SDS011;11076;47.942;11.804;2023-07-29T20:02:37;3.45;;;1.40;;
21827;SDS011;11076;47.942;11.804;2023-07-29T20:07:39;2.90;;;1.13;;
21827;SDS011;11076;47.942;11.804;2023-07-29T20:12:42;1.48;;;1.38;;
21827;SDS011;11076;47.942;11.804;2023-07-29T20:17:44;1.23;;;1.13;;
21827;SDS011;11076;47.942;11.804;2023-07-29T20:22:47;1.40;;;1.23;;
21827;SDS011;11076;47.942;11.804;2023-07-29T20:27:50;2.40;;;1.25;;
21827;SDS011;11076;47.942;11.804;2023-07-29T20:32:52;1.55;;;1.45;;
21827;SDS011;11076;47.942;11.804;2023-07-29T20:37:55;1.30;;;1.20;;
21827;SDS011;11076;47.942;11.804;2023-07-29T20:42:57;1.73;;;1.33;;
21827;SDS011;11076;47.942;11.804;2023-07-29T20:48:00;1.73;;;1.45;;
21827;SDS011;11076;47.942;11.804;2023-07-29T20:53:02;1.42;;;1.30;;
21827;SDS011;11076;47.942;11.804;2023-07-29T20:58:04;1.00;;;1.00;;
21827;SDS011;11076;47.942;11.804;2023-07-29T21:03:07;1.20;;;1.10;;
21827;SDS011;11076;47.942;11.804;2023-07-29T21:08:09;1.10;;;1.10;;
21827;SDS011;11076;47.942;11.804;2023-07-29T21:13:12;2.28;;;1.20;;
21827;SDS011;11076;47.942;11.804;2023-07-29T21:18:14;2.00;;;1.10;;
21827;SDS011;11076;47.942;11.804;2023-07-29T21:23:17;1.63;;;1.20;;
21827;SDS011;11076;47.942;11.804;2023-07-29T21:28:19;1.30;;;1.20;;
21827;SDS011;11076;47.942;11.804;2023-07-29T21:33:22;1.00;;;1.00;;
21827;SDS011;11076;47.942;11.804;2023-07-29T21:38:24;2.50;;;1.10;;
21827;SDS011;11076;47.942;11.804;2023-07-29T21:43:30;1.20;;;1.10;;
21827;SDS011;11076;47.942;11.804;2023-07-29T21:48:33;1.85;;;0.93;;
21827;SDS011;11076;47.942;11.804;2023-07-29T21:53:35;3.63;;;1.45;;
21827;SDS011;11076;47.942;11.804;2023-07-29T21:58:37;1.67;;;1.27;;
21827;SDS011;11076;47.942;11.804;2023-07-29T22:03:40;2.20;;;1.10;;
21827;SDS011;11076;47.942;11.804;2023-07-29T22:08:42;2.10;;;1.00;;
21827;SDS011;11076;47.942;11.804;2023-07-29T22:13:45;1.30;;;1.20;;
21827;SDS011;11076;47.942;11.804;2023-07-29T22:18:47;2.10;;;1.10;;
21827;SDS011;11076;47.942;11.804;2023-07-29T22:23:50;1.40;;;1.02;;
21827;SDS011;11076;47.942;11.804;2023-07-29T22:28:59;1.27;;;1.17;;
21827;SDS011;11076;47.942;11.804;2023-07-29T22:34:03;1.02;;;0.98;;
21827;SDS011;11076;47.942;11.804;2023-07-29T22:39:05;1.10;;;1.00;;
21827;SDS011;11076;47.942;11.804;2023-07-29T22:44:07;1.27;;;1.13;;
21827;SDS011;11076;47.942;11.804;2023-07-29T22:49:10;2.58;;;1.35;;
21827;SDS011;11076;47.942;11.804;2023-07-29T22:54:13;6.00;;;1.48;;
21827;SDS011;11076;47.942;11.804;2023-07-29T22:59:15;2.05;;;1.02;;
21827;SDS011;11076;47.942;11.804;2023-07-29T23:04:17;3.72;;;1.40;;
21827;SDS011;11076;47.942;11.804;2023-07-29T23:09:20;1.40;;;1.30;;
21827;SDS011;11076;47.942;11.804;2023-07-29T23:14:24;4.00;;;1.17;;
21827;SDS011;11076;47.942;11.804;2023-07-29T23:19:27;1.45;;;1.35;;
21827;SDS011;11076;47.942;11.804;2023-07-29T23:24:29;2.25;;;1.30;;
21827;SDS011;11076;47.942;11.804;2023-07-29T23:29:32;1.52;;;1.40;;
21827;SDS011;11076;47.942;11.804;2023-07-29T23:34:34;1.13;;;1.02;;
21827;SDS011;11076;47.942;11.804;2023-07-29T23:39:36;1.60;;;1.50;;
21827;SDS011;11076;47.942;11.804;2023-07-29T23:44:39;2.75;;;1.17;;
21827;SDS011;11076;47.942;11.804;2023-07-29T23:49:41;2.63;;;1.25;;
21827;SDS011;11076;47.942;11.804;2023-07-29T23:54:43;1.55;;;1.33;;
21827;SDS011;11076;47.942;11.804;2023-07-29T23:59:46;2.25;;;1.55;;
